createdAt,value
2022-10-12T00:02:26.934Z,98851.56
2022-10-12T00:04:53.921Z,98849.00
2022-10-12T00:07:20.904Z,98846.41
2022-10-12T00:09:47.984Z,98850.06
2022-10-12T00:12:15.094Z,98854.91
2022-10-12T00:14:42.348Z,98853.41
2022-10-12T00:17:09.344Z,98853.69
2022-10-12T00:19:36.392Z,98857.72
2022-10-12T00:22:03.407Z,98853.66
2022-10-12T00:24:30.495Z,98853.13
2022-10-12T00:26:57.708Z,98857.38
2022-10-12T00:29:24.781Z,98848.91
2022-10-12T00:31:51.750Z,98853.44
2022-10-12T00:34:18.802Z,98847.25
2022-10-12T00:36:45.806Z,98846.16
2022-10-12T00:39:13.234Z,98848.72
2022-10-12T00:41:44.028Z,98846.16
2022-10-12T00:44:41.544Z,98851.31
2022-10-12T00:47:34.602Z,98848.66
2022-10-12T00:50:07.314Z,98848.59
2022-10-12T00:52:46.400Z,98846.91
2022-10-12T00:55:17.946Z,98852.94
2022-10-12T00:57:47.552Z,98852.66
2022-10-12T01:00:15.883Z,98856.03
2022-10-12T01:02:43.801Z,98855.31
2022-10-12T01:05:11.729Z,98853.47
2022-10-12T01:07:39.117Z,98854.25
2022-10-12T01:10:07.310Z,98850.66
2022-10-12T01:12:35.396Z,98851.97
2022-10-12T01:15:03.767Z,98858.03
2022-10-12T01:17:56.582Z,98853.09
2022-10-12T01:20:47.789Z,98850.53
2022-10-12T01:23:17.559Z,98857.34
2022-10-12T01:26:11.709Z,98847.72
2022-10-12T01:29:51.721Z,98831.47
2022-10-12T01:32:37.527Z,98837.25
2022-10-12T01:35:43.821Z,98829.66
2022-10-12T01:38:28.673Z,98833.22
2022-10-12T01:41:13.879Z,98829.88
2022-10-12T01:43:45.700Z,98821.28
2022-10-12T01:46:15.685Z,98829.94
2022-10-12T01:48:45.773Z,98829.41
2022-10-12T01:51:22.531Z,98835.03
2022-10-12T01:54:16.714Z,98827.53
2022-10-12T01:57:47.921Z,98830.75
2022-10-12T02:00:17.284Z,98823.66
2022-10-12T02:03:33.989Z,98830.34
2022-10-12T02:06:11.721Z,98826.00
2022-10-12T02:08:42.390Z,98822.72
2022-10-12T02:11:16.357Z,98826.78
2022-10-12T02:13:49.937Z,98823.81
2022-10-12T02:16:26.156Z,98817.81
2022-10-12T02:18:56.123Z,98819.06
2022-10-12T02:21:31.147Z,98806.59
2022-10-12T02:24:02.630Z,98813.41
2022-10-12T02:26:32.803Z,98809.63
2022-10-12T02:29:03.369Z,98814.91
2022-10-12T02:32:04.550Z,98807.28
2022-10-12T02:34:38.441Z,98808.06
2022-10-12T02:37:11.419Z,98813.59
2022-10-12T02:39:54.409Z,98812.13
2022-10-12T02:42:30.254Z,98804.16
2022-10-12T02:45:06.726Z,98810.53
2022-10-12T02:47:35.829Z,98808.69
2022-10-12T02:50:04.407Z,98811.16
2022-10-12T02:52:32.817Z,98812.47
2022-10-12T02:54:59.876Z,98812.22
2022-10-12T02:57:27.232Z,98812.16
2022-10-12T02:59:54.210Z,98810.50
2022-10-12T03:02:21.176Z,98813.28
2022-10-12T03:04:48.142Z,98805.09
2022-10-12T03:07:15.132Z,98811.16
2022-10-12T03:09:42.078Z,98809.97
2022-10-12T03:12:09.051Z,98814.72
2022-10-12T03:14:37.492Z,98812.28
2022-10-12T03:17:05.016Z,98819.50
2022-10-12T03:19:31.981Z,98822.41
2022-10-12T03:21:58.986Z,98818.41
2022-10-12T03:24:26.062Z,98822.16
2022-10-12T03:26:53.161Z,98814.56
2022-10-12T03:29:23.170Z,98822.94
2022-10-12T03:31:50.197Z,98827.38
2022-10-12T03:34:19.894Z,98829.41
2022-10-12T03:36:46.841Z,98826.78
2022-10-12T03:39:14.074Z,98825.09
2022-10-12T03:41:41.067Z,98824.84
2022-10-12T03:44:08.004Z,98829.94
2022-10-12T03:46:35.007Z,98821.03
2022-10-12T03:49:01.988Z,98833.13
2022-10-12T03:51:28.972Z,98834.28
2022-10-12T03:53:55.992Z,98835.41
2022-10-12T03:56:23.245Z,98834.72
2022-10-12T03:58:50.192Z,98823.81
2022-10-12T04:01:17.216Z,98829.34
2022-10-12T04:03:44.465Z,98826.31
2022-10-12T04:06:11.693Z,98821.16
2022-10-12T04:08:40.222Z,98822.34
2022-10-12T04:11:07.538Z,98822.66
2022-10-12T04:13:34.659Z,98826.53
2022-10-12T04:16:04.372Z,98821.47
2022-10-12T04:18:31.579Z,98824.19
2022-10-12T04:21:02.948Z,98821.59
2022-10-12T04:23:29.970Z,98826.53
2022-10-12T04:25:57.200Z,98822.16
2022-10-12T04:28:24.258Z,98824.84
2022-10-12T04:30:51.252Z,98826.03
2022-10-12T04:33:18.228Z,98823.38
2022-10-12T04:35:45.162Z,98823.00
2022-10-12T04:38:13.123Z,98822.75
2022-10-12T04:40:40.152Z,98841.06
2022-10-12T04:43:07.115Z,98838.09
2022-10-12T04:45:36.095Z,98829.81
2022-10-12T04:48:03.039Z,98830.13
2022-10-12T04:50:30.377Z,98836.00
2022-10-12T04:52:57.552Z,98834.81
2022-10-12T04:55:24.512Z,98839.75
2022-10-12T04:57:51.486Z,98840.31
2022-10-12T05:00:18.910Z,98841.66
2022-10-12T05:02:45.936Z,98844.69
2022-10-12T05:05:12.886Z,98850.72
2022-10-12T05:07:40.086Z,98838.59
2022-10-12T05:10:08.183Z,98840.53
2022-10-12T05:12:35.346Z,98841.59
2022-10-12T05:15:02.929Z,98840.56
2022-10-12T05:17:29.948Z,98844.28
2022-10-12T05:19:56.940Z,98842.31
2022-10-12T05:22:24.042Z,98844.41
2022-10-12T05:24:53.785Z,98846.75
2022-10-12T05:27:21.109Z,98847.56
2022-10-12T05:29:48.115Z,98848.75
2022-10-12T05:32:15.584Z,98844.53
2022-10-12T05:34:42.804Z,98851.94
2022-10-12T05:37:10.002Z,98852.97
2022-10-12T05:39:37.276Z,98852.28
2022-10-12T05:42:05.170Z,98848.84
2022-10-12T05:44:32.449Z,98845.63
2022-10-12T05:46:59.612Z,98846.91
2022-10-12T05:49:26.887Z,98851.31
2022-10-12T05:51:53.909Z,98850.34
2022-10-12T05:54:20.920Z,98854.34
2022-10-12T05:56:47.898Z,98854.94
2022-10-12T05:59:14.991Z,98855.88
2022-10-12T06:01:42.058Z,98855.13
2022-10-12T06:04:09.088Z,98864.13
2022-10-12T06:06:36.085Z,98861.41
2022-10-12T06:09:03.094Z,98868.06
2022-10-12T06:11:32.629Z,98869.84
2022-10-12T06:14:02.544Z,98861.94
2022-10-12T06:16:29.612Z,98860.19
2022-10-12T06:18:56.907Z,98866.97
2022-10-12T06:21:39.224Z,98858.41
2022-10-12T06:24:06.607Z,98862.66
2022-10-12T06:26:33.734Z,98858.66
2022-10-12T06:29:00.948Z,98857.97
2022-10-12T06:31:29.284Z,98858.88
2022-10-12T06:33:56.259Z,98865.78
2022-10-12T06:36:23.885Z,98860.66
2022-10-12T06:38:51.294Z,98866.16
2022-10-12T06:41:18.387Z,98877.47
2022-10-12T06:43:45.699Z,98870.16
2022-10-12T06:46:12.826Z,98872.81
2022-10-12T06:48:39.839Z,98870.34
2022-10-12T06:51:06.783Z,98866.97
2022-10-12T06:53:35.035Z,98872.91
2022-10-12T06:56:12.000Z,98871.34
2022-10-12T06:58:39.516Z,98881.31
2022-10-12T07:01:10.288Z,98868.94
2022-10-12T07:03:37.565Z,98876.63
2022-10-12T07:06:13.730Z,98873.63
2022-10-12T07:08:42.148Z,98873.22
2022-10-12T07:11:11.688Z,98880.22
2022-10-12T07:13:39.183Z,98876.63
2022-10-12T07:16:06.476Z,98881.09
2022-10-12T07:18:33.624Z,98869.63
2022-10-12T07:21:02.462Z,98881.41
2022-10-12T07:23:32.647Z,98870.94
2022-10-12T07:26:00.488Z,98878.75
2022-10-12T07:28:28.101Z,98876.19
2022-10-12T07:30:55.558Z,98883.88
2022-10-12T07:33:22.511Z,98882.75
2022-10-12T07:36:13.170Z,98880.97
2022-10-12T07:38:44.846Z,98882.34
2022-10-12T07:41:14.597Z,98877.03
2022-10-12T07:43:42.246Z,98877.50
2022-10-12T07:46:09.305Z,98880.50
2022-10-12T07:48:37.818Z,98880.47
2022-10-12T07:51:06.912Z,98873.44
2022-10-12T07:53:35.297Z,98867.47
2022-10-12T07:56:06.866Z,98867.66
2022-10-12T07:58:34.246Z,98872.47
2022-10-12T08:01:06.428Z,98864.91
2022-10-12T08:03:33.484Z,98870.47
2022-10-12T08:06:00.606Z,98871.81
2022-10-12T08:08:27.553Z,98876.13
2022-10-12T08:10:54.627Z,98873.53
2022-10-12T08:13:21.790Z,98874.09
2022-10-12T08:15:50.452Z,98869.91
2022-10-12T08:18:17.500Z,98868.25
2022-10-12T08:20:44.478Z,98869.69
2022-10-12T08:23:11.473Z,98876.94
2022-10-12T08:25:38.568Z,98874.06
2022-10-12T08:28:06.040Z,98879.75
2022-10-12T08:30:34.142Z,98883.06
2022-10-12T08:33:01.148Z,98877.09
2022-10-12T08:35:28.123Z,98875.38
2022-10-12T08:37:55.097Z,98883.88
2022-10-12T08:40:34.520Z,98881.69
2022-10-12T08:43:37.438Z,98880.25
2022-10-12T08:46:06.147Z,98881.59
2022-10-12T08:48:58.729Z,98868.47
2022-10-12T08:51:31.363Z,98878.75
2022-10-12T08:54:06.283Z,98878.88
2022-10-12T08:56:39.600Z,98888.41
2022-10-12T08:59:12.509Z,98873.91
2022-10-12T09:02:05.937Z,98873.16
2022-10-12T09:04:41.073Z,98867.38
2022-10-12T09:07:27.382Z,98865.38
2022-10-12T09:10:33.667Z,98859.50
2022-10-12T09:13:31.389Z,98857.34
2022-10-12T09:16:26.378Z,98850.22
2022-10-12T09:19:24.428Z,98859.38
2022-10-12T09:21:51.702Z,98863.81
2022-10-12T09:24:23.687Z,98859.03
2022-10-12T09:26:52.475Z,98860.00
2022-10-12T09:29:27.118Z,98857.09
2022-10-12T09:32:31.586Z,98856.81
2022-10-12T09:34:59.817Z,98858.50
2022-10-12T09:37:30.779Z,98859.91
2022-10-12T09:39:59.634Z,98866.34
2022-10-12T09:42:26.964Z,98867.84
2022-10-12T09:45:19.122Z,98873.31
2022-10-12T09:48:24.645Z,98875.38
2022-10-12T09:51:01.501Z,98873.97
2022-10-12T09:53:43.926Z,98863.56
2022-10-12T09:56:30.384Z,98865.75
2022-10-12T09:59:02.676Z,98868.25
2022-10-12T10:01:35.469Z,98861.47
2022-10-12T10:04:24.145Z,98874.63
2022-10-12T10:06:51.287Z,98875.25
2022-10-12T10:09:33.627Z,98866.03
2022-10-12T10:12:33.195Z,98872.03
2022-10-12T10:15:01.230Z,98874.38
2022-10-12T10:17:32.548Z,98871.97
2022-10-12T10:20:05.914Z,98870.59
2022-10-12T10:22:33.405Z,98878.28
2022-10-12T10:25:01.252Z,98884.59
2022-10-12T10:27:38.713Z,98879.28
2022-10-12T10:30:32.106Z,98867.03
2022-10-12T10:33:36.015Z,98876.13
2022-10-12T10:36:22.365Z,98882.97
2022-10-12T10:39:06.511Z,98877.97
2022-10-12T10:41:42.120Z,98875.97
2022-10-12T10:44:38.812Z,98882.50
2022-10-12T10:47:13.434Z,98879.09
2022-10-12T10:49:48.663Z,98883.53
2022-10-12T10:52:25.517Z,98870.44
2022-10-12T10:55:10.978Z,98877.84
2022-10-12T10:57:44.623Z,98869.25
2022-10-12T11:03:51.375Z,98867.56
2022-10-12T11:07:13.012Z,98873.97
2022-10-12T11:09:46.329Z,98866.22
2022-10-12T11:12:33.759Z,98864.56
2022-10-12T11:15:33.478Z,98859.91
2022-10-12T11:18:30.992Z,98855.44
2022-10-12T11:21:17.300Z,98871.59
2022-10-12T11:24:15.078Z,98866.94
2022-10-12T11:27:01.187Z,98859.50
2022-10-12T11:29:28.862Z,98866.81
2022-10-12T11:32:05.644Z,98857.75
2022-10-12T11:34:49.214Z,98861.25
2022-10-12T11:37:23.226Z,98861.63
2022-10-12T11:39:53.873Z,98867.25
2022-10-12T11:42:43.191Z,98855.88
2022-10-12T11:45:31.306Z,98854.66
2022-10-12T11:48:12.345Z,98853.09
2022-10-12T11:50:45.482Z,98851.44
2022-10-12T11:53:33.908Z,98850.66
2022-10-12T11:56:08.753Z,98853.13
2022-10-12T11:59:01.378Z,98850.25
2022-10-12T12:01:58.886Z,98845.94
2022-10-12T12:04:43.850Z,98838.31
2022-10-12T12:07:23.367Z,98831.53
2022-10-12T12:09:51.614Z,98838.56
2022-10-12T12:12:26.131Z,98829.53
2022-10-12T12:14:53.143Z,98833.00
2022-10-12T12:17:20.020Z,98839.63
2022-10-12T12:20:01.659Z,98833.00
2022-10-12T12:22:37.434Z,98830.59
2022-10-12T12:25:13.018Z,98808.31
2022-10-12T12:27:56.006Z,98815.16
2022-10-12T12:30:32.135Z,98814.84
2022-10-12T12:33:07.168Z,98804.97
2022-10-12T12:35:41.107Z,98809.06
2022-10-12T12:38:13.745Z,98805.31
2022-10-12T12:40:42.109Z,98808.00
2022-10-12T12:43:36.391Z,98808.69
2022-10-12T12:46:08.250Z,98797.59
2022-10-12T12:48:53.213Z,98800.09
2022-10-12T12:51:24.584Z,98798.16
2022-10-12T12:54:04.923Z,98802.63
2022-10-12T12:57:06.889Z,98792.28
2022-10-12T12:59:48.813Z,98799.69
2022-10-12T13:02:50.664Z,98797.75
2022-10-12T13:05:20.210Z,98803.66
2022-10-12T13:08:11.856Z,98787.69
2022-10-12T13:11:13.310Z,98783.13
2022-10-12T13:14:07.951Z,98784.25
2022-10-12T13:20:22.479Z,98780.53
2022-10-12T13:22:53.346Z,98777.28
2022-10-12T13:25:47.988Z,98787.50
2022-10-12T13:28:26.125Z,98769.53
2022-10-12T13:31:01.829Z,98770.94
2022-10-12T13:33:46.786Z,98764.97
2022-10-12T13:36:24.628Z,98765.03
2022-10-12T13:39:00.654Z,98764.34
2022-10-12T13:41:31.680Z,98760.16
2022-10-12T13:44:07.143Z,98760.91
2022-10-12T13:46:56.821Z,98757.72
2022-10-12T13:49:31.392Z,98760.31
2022-10-12T13:52:09.343Z,98761.16
2022-10-12T13:54:46.425Z,98760.91
2022-10-12T13:57:46.219Z,98752.81
2022-10-12T14:00:16.556Z,98757.06
2022-10-12T14:02:56.290Z,98746.31
2022-10-12T14:05:26.090Z,98757.13
2022-10-12T14:07:58.482Z,98755.22
2022-10-12T14:10:32.140Z,98758.16
2022-10-12T14:13:02.164Z,98748.13
2022-10-12T14:15:36.083Z,98748.53
2022-10-12T14:18:04.310Z,98756.44
2022-10-12T14:20:39.677Z,98745.47
2022-10-12T14:23:21.536Z,98748.38
2022-10-12T14:25:55.359Z,98750.00
2022-10-12T14:28:30.080Z,98744.53
2022-10-12T14:30:57.456Z,98745.31
2022-10-12T14:33:26.665Z,98739.25
2022-10-12T14:36:22.176Z,98740.63
2022-10-12T14:38:50.783Z,98735.91
2022-10-12T14:41:38.274Z,98733.94
2022-10-12T14:44:12.733Z,98734.53
2022-10-12T14:46:50.427Z,98744.78
2022-10-12T14:49:27.300Z,98747.25
2022-10-12T14:51:55.545Z,98735.44
2022-10-12T14:54:23.631Z,98737.00
2022-10-12T14:56:50.716Z,98736.59
2022-10-12T14:59:18.141Z,98736.31
2022-10-12T15:01:51.007Z,98737.38
2022-10-12T15:04:18.942Z,98740.03
2022-10-12T15:06:50.559Z,98730.53
2022-10-12T15:09:18.152Z,98729.00
2022-10-12T15:11:45.160Z,98726.16
2022-10-12T15:14:12.660Z,98726.53
2022-10-12T15:16:40.033Z,98735.75
2022-10-12T15:19:07.040Z,98735.34
2022-10-12T15:21:34.387Z,98728.84
2022-10-12T15:24:01.383Z,98735.19
2022-10-12T15:26:28.871Z,98733.75
2022-10-12T15:28:55.921Z,98734.50
2022-10-12T15:31:22.974Z,98729.22
2022-10-12T15:33:50.172Z,98729.75
2022-10-12T15:36:17.375Z,98730.28
2022-10-12T15:38:44.387Z,98716.31
2022-10-12T15:41:18.357Z,98720.72
2022-10-12T15:43:45.350Z,98724.31
2022-10-12T15:46:12.670Z,98719.59
2022-10-12T15:48:40.301Z,98721.94
2022-10-12T15:51:23.151Z,98729.53
2022-10-12T15:53:51.835Z,98727.03
2022-10-12T15:56:20.361Z,98726.56
2022-10-12T15:58:47.750Z,98729.59
2022-10-12T16:01:19.992Z,98719.84
2022-10-12T16:03:48.382Z,98726.06
2022-10-12T16:06:15.671Z,98722.94
2022-10-12T16:08:42.826Z,98721.63
2022-10-12T16:11:15.286Z,98724.28
2022-10-12T16:13:51.043Z,98728.88
2022-10-12T16:16:21.001Z,98717.84
2022-10-12T16:18:48.054Z,98723.19
2022-10-12T16:21:15.240Z,98715.63
2022-10-12T16:23:42.257Z,98716.31
2022-10-12T16:26:12.364Z,98721.41
2022-10-12T16:28:39.546Z,98720.59
2022-10-12T16:31:15.889Z,98721.22
2022-10-12T16:33:43.791Z,98717.44
2022-10-12T16:36:14.435Z,98720.00
2022-10-12T16:38:43.379Z,98730.25
2022-10-12T16:41:19.517Z,98736.16
2022-10-12T16:43:47.051Z,98735.13
2022-10-12T16:46:14.171Z,98738.56
2022-10-12T16:48:41.373Z,98741.03
2022-10-12T16:51:10.063Z,98747.38
2022-10-12T16:53:37.540Z,98745.34
2022-10-12T16:56:05.371Z,98741.16
2022-10-12T16:58:33.062Z,98740.00
2022-10-12T17:01:10.148Z,98747.00
2022-10-12T17:03:37.201Z,98747.16
2022-10-12T17:06:04.497Z,98747.19
2022-10-12T17:08:36.168Z,98748.53
2022-10-12T17:11:13.381Z,98756.28
2022-10-12T17:13:46.538Z,98756.31
2022-10-12T17:16:33.957Z,98751.28
2022-10-12T17:19:01.174Z,98749.31
2022-10-12T17:21:28.673Z,98754.50
2022-10-12T17:24:00.103Z,98748.56
2022-10-12T17:26:28.047Z,98751.41
2022-10-12T17:28:55.485Z,98754.00
2022-10-12T17:31:22.621Z,98743.50
2022-10-12T17:33:50.036Z,98739.81
2022-10-12T17:36:17.856Z,98731.66
2022-10-12T17:38:48.096Z,98734.81
2022-10-12T17:41:15.328Z,98731.94
2022-10-12T17:43:42.396Z,98732.66
2022-10-12T17:46:09.366Z,98732.69
2022-10-12T17:48:36.439Z,98743.25
2022-10-12T17:51:09.334Z,98739.28
2022-10-12T17:53:37.305Z,98742.41
2022-10-12T17:56:05.227Z,98743.59
2022-10-12T17:58:32.951Z,98749.00
2022-10-12T18:01:13.302Z,98742.47
2022-10-12T18:03:42.880Z,98747.59
2022-10-12T18:06:14.395Z,98751.28
2022-10-12T18:08:42.564Z,98741.38
2022-10-12T18:11:09.674Z,98738.97
2022-10-12T18:13:38.091Z,98747.63
2022-10-12T18:16:11.901Z,98745.31
2022-10-12T18:18:39.150Z,98755.94
2022-10-12T18:21:08.770Z,98747.75
2022-10-12T18:23:36.513Z,98747.78
2022-10-12T18:26:13.011Z,98742.78
2022-10-12T18:28:42.121Z,98745.84
2022-10-12T18:31:16.607Z,98743.22
2022-10-12T18:33:43.622Z,98747.91
2022-10-12T18:36:11.796Z,98749.41
2022-10-12T18:38:44.598Z,98749.84
2022-10-12T18:41:15.811Z,98759.53
2022-10-12T18:43:43.389Z,98748.00
2022-10-12T18:46:18.272Z,98755.59
2022-10-12T18:48:45.484Z,98753.34
2022-10-12T18:51:21.855Z,98754.00
2022-10-12T18:53:49.400Z,98768.91
2022-10-12T18:56:16.953Z,98755.59
2022-10-12T18:58:44.413Z,98755.50
2022-10-12T19:01:18.161Z,98755.06
2022-10-12T19:03:46.087Z,98753.50
2022-10-12T19:06:22.260Z,98741.84
2022-10-12T19:08:49.971Z,98748.41
2022-10-12T19:11:19.965Z,98748.75
2022-10-12T19:13:57.410Z,98751.09
2022-10-12T19:16:24.865Z,98748.97
2022-10-12T19:19:20.508Z,98746.94
2022-10-12T19:21:50.221Z,98760.03
2022-10-12T19:24:18.170Z,98754.81
2022-10-12T19:26:45.216Z,98755.00
2022-10-12T19:29:35.588Z,98757.28
2022-10-12T19:32:03.444Z,98753.34
2022-10-12T19:34:30.612Z,98754.97
2022-10-12T19:37:06.692Z,98751.03
2022-10-12T19:39:33.816Z,98744.75
2022-10-12T19:42:00.767Z,98751.84
2022-10-12T19:44:27.883Z,98745.66
2022-10-12T19:46:54.940Z,98744.03
2022-10-12T19:49:25.166Z,98745.00
2022-10-12T19:51:52.272Z,98750.16
2022-10-12T19:54:19.787Z,98752.75
2022-10-12T19:56:46.776Z,98750.41
2022-10-12T19:59:14.039Z,98752.34
2022-10-12T20:01:41.520Z,98753.03
2022-10-12T20:04:11.822Z,98750.56
2022-10-12T20:06:39.333Z,98748.69
2022-10-12T20:09:07.814Z,98751.72
2022-10-12T20:11:35.507Z,98757.22
2022-10-12T20:14:03.400Z,98757.19
2022-10-12T20:16:34.776Z,98766.88
2022-10-12T20:19:04.269Z,98758.22
2022-10-12T20:21:31.437Z,98755.59
2022-10-12T20:23:58.550Z,98744.00
2022-10-12T20:26:26.490Z,98753.03
2022-10-12T20:28:54.745Z,98754.81
2022-10-12T20:31:23.926Z,98763.06
2022-10-12T20:33:55.980Z,98768.75
2022-10-12T20:36:27.459Z,98767.50
2022-10-12T20:38:55.143Z,98768.75
2022-10-12T20:41:25.788Z,98765.50
2022-10-12T20:44:00.679Z,98761.88
2022-10-12T20:46:29.242Z,98757.44
2022-10-12T20:48:59.408Z,98760.63
2022-10-12T20:51:30.509Z,98769.53
2022-10-12T20:54:01.637Z,98758.50
2022-10-12T20:56:34.746Z,98761.63
2022-10-12T20:59:26.555Z,98759.53
2022-10-12T21:01:53.612Z,98754.13
2022-10-12T21:04:20.595Z,98753.03
2022-10-12T21:06:47.598Z,98756.44
2022-10-12T21:09:15.223Z,98749.72
2022-10-12T21:11:43.710Z,98746.75
2022-10-12T21:14:14.381Z,98747.69
2022-10-12T21:16:42.087Z,98761.44
2022-10-12T21:19:13.805Z,98764.94
2022-10-12T21:21:40.863Z,98762.63
2022-10-12T21:24:10.104Z,98758.97
2022-10-12T21:26:37.549Z,98753.31
2022-10-12T21:29:05.044Z,98752.41
2022-10-12T21:31:33.040Z,98751.56
2022-10-12T21:34:02.221Z,98745.25
2022-10-12T21:36:30.885Z,98749.44
2022-10-12T21:38:58.021Z,98744.91
2022-10-12T21:41:27.807Z,98744.81
2022-10-12T21:43:55.507Z,98740.63
2022-10-12T21:46:26.872Z,98742.22
2022-10-12T21:48:54.105Z,98746.81
2022-10-12T21:51:23.223Z,98744.84
2022-10-12T21:53:51.403Z,98741.22
2022-10-12T21:56:29.023Z,98737.00
2022-10-12T21:58:58.684Z,98744.69
2022-10-12T22:01:34.636Z,98746.13
2022-10-12T22:04:06.218Z,98748.41
2022-10-12T22:06:34.596Z,98749.53
2022-10-12T22:09:12.706Z,98745.91
2022-10-12T22:11:39.747Z,98742.13
2022-10-12T22:14:14.542Z,98745.28
2022-10-12T22:16:43.341Z,98742.97
2022-10-12T22:19:18.967Z,98727.31
2022-10-12T22:21:51.460Z,98729.72
2022-10-12T22:24:20.317Z,98727.59
2022-10-12T22:26:47.356Z,98725.59
2022-10-12T22:29:14.443Z,98719.25
2022-10-12T22:31:41.795Z,98726.28
2022-10-12T22:34:10.280Z,98726.19
2022-10-12T22:36:37.265Z,98732.41
2022-10-12T22:39:05.773Z,98730.19
2022-10-12T22:41:32.717Z,98736.25
2022-10-12T22:43:59.749Z,98734.00
2022-10-12T22:46:26.853Z,98735.31
2022-10-12T22:48:54.761Z,98741.63
2022-10-12T22:51:37.293Z,98746.44
2022-10-12T22:54:04.647Z,98742.69
2022-10-12T22:56:32.059Z,98738.34
2022-10-12T22:59:02.544Z,98740.84
2022-10-12T23:01:30.064Z,98737.75
2022-10-12T23:03:57.258Z,98736.56
2022-10-12T23:06:25.279Z,98732.13
2022-10-12T23:08:52.724Z,98738.06
2022-10-12T23:11:26.357Z,98733.28
2022-10-12T23:13:55.428Z,98732.69
2022-10-12T23:16:29.629Z,98728.75
2022-10-12T23:19:00.111Z,98729.69
2022-10-12T23:21:29.002Z,98727.22
2022-10-12T23:23:58.361Z,98722.91
2022-10-12T23:26:27.116Z,98716.94
2022-10-12T23:28:55.249Z,98715.44
2022-10-12T23:31:26.596Z,98712.03
2022-10-12T23:34:00.268Z,98705.13
2022-10-12T23:36:27.835Z,98707.16
2022-10-12T23:38:54.811Z,98704.00
2022-10-12T23:41:22.309Z,98700.13
2022-10-12T23:43:49.362Z,98712.94
2022-10-12T23:46:16.375Z,98714.06
2022-10-12T23:48:43.329Z,98713.31
2022-10-12T23:51:11.027Z,98720.81
2022-10-12T23:53:38.458Z,98726.56
2022-10-12T23:56:06.684Z,98728.56
2022-10-12T23:58:34.227Z,98729.22
